• Join FlightAware (Why Join?)
  • Login
  • US Flag 
11:47PM EDT


 

Airport Tracker/Info


-or-


 

Live Flight TrackerFlight Track Log ✈ N8957N ✈ 25-Jun-2013 ✈ KCEF - N14

Flight Track Log - Related Links

Times and Time Zones

All times are in EDT time to prevent confusion due to time zone crossing. See the N8957N flight status page for this flight to view local times or setup timezone preferences in your user account.

Time Position Orientation Groundspeed Altitude Reporting Facility
EDT Latitude Longitude Course Direction KTS MPH feet Rate Location/Type
11:31AM 42.0164 -72.8258 238° Southwest 80 92 7,200  Level Boston Center
11:32AM 42.0036 -72.8536 238° Southwest 82 94 7,800 480 Climbing Boston Center
11:34AM 41.9847 -72.8897 235° Southwest 82 94 8,500 360 Climbing Boston Center
11:34AM 41.9783 -72.9064 243° Southwest 85 98 8,600 180 Climbing Boston Center
11:35AM 41.9594 -72.9369 230° Southwest 103 119 8,800 -60 Climbing Boston Center
11:36AM 41.9428 -72.9789 242° Southwest 115 132 8,500 -180 Descending Boston Center
11:38AM 41.9175 -73.0231 232° Southwest 112 129 8,500  Level Boston Center
11:39AM 41.9006 -73.0508 231° Southwest 112 129 8,500  Level Boston Center
11:40AM 41.8817 -73.0925 239° Southwest 114 131 8,500  Level Boston Center
11:41AM 41.8647 -73.1231 233° Southwest 114 131 8,600  Climbing Boston Center
11:42AM 41.8478 -73.1619 240° Southwest 114 131 8,500  Descending Boston Center
11:43AM 41.8353 -73.1981 245° Southwest 119 137 8,600  Climbing Boston Center
11:44AM 41.8161 -73.2367 236° Southwest 119 137 8,500  Descending Boston Center
11:45AM 41.8014 -73.2672 237° Southwest 119 137 8,600  Climbing Boston Center
11:46AM 41.7864 -73.2947 234° Southwest 119 137 8,600  Level Boston Center
11:47AM 41.7675 -73.3419 242° Southwest 119 137 8,600  Level Boston Center
11:48AM 41.7506 -73.3750 236° Southwest 119 137 8,600  Level Boston Center
11:49AM 41.7314 -73.4136 236° Southwest 119 137 8,600 -60 Level Boston Center
11:50AM 41.7186 -73.4469 243° Southwest 119 137 8,500  Descending Boston Center
11:51AM 41.7017 -73.4883 241° Southwest 119 137 8,600  Climbing Boston Center
11:52AM 41.6886 -73.5214 242° Southwest 119 137 8,500 -60 Descending Boston Center
11:53AM 41.6717 -73.5600 240° Southwest 114 131 8,500  Level Boston Center
11:54AM 41.6567 -73.5931 239° Southwest 114 131 8,600  Climbing Boston Center
11:55AM 41.6356 -73.6317 234° Southwest 119 137 8,600 -60 Level Boston Center
11:56AM 41.6206 -73.6647 239° Southwest 119 137 8,500 -60 Descending Boston Center
11:57AM 41.6014 -73.7033 236° Southwest 119 137 8,500  Level Boston Center
11:58AM 41.5886 -73.7336 241° Southwest 119 137 8,600  Climbing Boston Center
11:59AM 41.5694 -73.7719 236° Southwest 119 137 8,600 -60 Level Boston Center
12:00PM 41.5481 -73.8186 239° Southwest 119 137 8,500 -60 Descending Boston Center
12:01PM 41.5328 -73.8544 240° Southwest 119 137 8,500 -60 Level Boston Center
12:02PM 41.5158 -73.8900 238° Southwest 119 137 8,400  Descending Boston Center
12:03PM 41.4967 -73.9256 234° Southwest 119 137 8,500  Climbing Boston Center
12:04PM 41.4775 -73.9556 230° Southwest 119 137 8,500  Level Boston Center
12:05PM 41.4539 -73.9939 231° Southwest 119 137 8,500  Level Boston Center
12:06PM 41.4347 -74.0211 227° Southwest 119 137 8,500  Level Boston Center
12:07PM 41.4072 -74.0564 224° Southwest 124 143 8,500  Level Boston Center
12:08PM 41.3861 -74.0836 224° Southwest 124 143 8,500  Level Boston Center
12:09PM 41.3667 -74.1167 232° Southwest 123 142 8,500  Level New York TRACON
12:10PM 41.3333 -74.1333 201° Southwest 119 137 8,500  Level New York TRACON
12:11PM 41.3167 -74.1667 236° Southwest 119 137 8,500  Level New York TRACON
12:12PM 41.2833 -74.2000 217° Southwest 120 138 8,500  Level New York TRACON
12:13PM 41.2500 -74.2333 217° Southwest 122 140 8,500  Level New York TRACON
12:14PM 41.2333 -74.2500 217° Southwest 122 140 8,500  Level New York TRACON
12:15PM 41.2000 -74.2833 217° Southwest 121 139 8,500  Level New York TRACON
12:16PM 41.1667 -74.3000 201° Southwest 119 137 8,500  Level New York TRACON
12:17PM 41.1500 -74.3333 236° Southwest 128 147 8,500  Level New York TRACON
12:18PM 41.1167 -74.3667 217° Southwest 126 145 8,600  Climbing New York TRACON
12:19PM 41.0833 -74.3833 201° Southwest 131 151 8,500 -60 Descending New York TRACON
12:20PM 41.0500 -74.4000 201° Southwest 125 144 8,500  Level New York TRACON
12:21PM 41.0333 -74.4333 236° Southwest 123 142 8,600  Climbing New York TRACON
12:22PM 41.0000 -74.4500 201° Southwest 130 150 8,600 -60 Level New York TRACON
12:23PM 40.9667 -74.4667 201° Southwest 129 148 8,500 -60 Descending New York TRACON
12:24PM 40.9333 -74.5000 217° Southwest 124 143 8,500  Level New York TRACON
12:25PM 40.9000 -74.5167 201° Southwest 127 146 8,500  Level New York TRACON
12:26PM 40.8833 -74.5333 217° Southwest 127 146 8,500  Level New York TRACON
12:27PM 40.8333 -74.5500 194° South 130 150 8,500  Level New York TRACON
12:28PM 40.8000 -74.5667 201° Southwest 128 147 8,500  Level New York TRACON
12:29PM 40.7667 -74.5833 201° Southwest 128 147 8,600  Climbing New York TRACON
12:30PM 40.7333 -74.5833 180° South 131 151 8,500 -60 Descending New York TRACON
12:31PM 40.7000 -74.6000 201° Southwest 125 144 8,500 -180 Level New York TRACON
12:32PM 40.6667 -74.6167 201° Southwest 136 157 8,200 -480 Descending New York TRACON
12:33PM 40.6167 -74.6333 194° South 151 174 7,600 -600 Descending New York TRACON
12:34PM 40.5833 -74.6333 180° South 153 176 7,100 -720 Descending New York TRACON
12:35PM 40.5333 -74.6500 194° South 159 183 6,200 -960 Descending New York TRACON
12:36PM 40.5000 -74.6667 201° Southwest 159 183 5,300 -720 Descending New York TRACON
12:38PM 40.4333 -74.6833 191° South 142 163 4,500 -300 Descending Philadelphia TRACON
12:38PM 40.4000 -74.7000 201° Southwest 130 150 4,600  Climbing Philadelphia TRACON
12:39PM 40.3667 -74.7000 180° South 128 147 4,500 -240 Descending Philadelphia TRACON
12:40PM 40.3333 -74.7167 201° Southwest 132 152 4,200 -300 Descending Philadelphia TRACON
12:42PM 40.2833 -74.7167 180° South 147 169 3,900 -360 Descending Philadelphia TRACON
12:43PM 40.2500 -74.7333 201° Southwest 140 161 3,500 -180 Descending Philadelphia TRACON
12:44PM 40.2167 -74.7333 180° South 131 151 3,600  Climbing Philadelphia TRACON
12:44PM 40.1833 -74.7500 201° Southwest 128 147 3,600  Level Philadelphia TRACON
12:46PM 40.1496 -74.7578 191° South  Level Estimated
12:53PM 39.9333 -74.8000 192° South  Level FlightAware Approximate
12:54PM 39.9343 -74.8072 192° South  Level Estimated
12:55PM 39.9333 -74.8000 192° South  Level FlightAware Approximate
12:56PM 39.9343 -74.8072 192° South  Level Estimated
12:57PM 39.9333 -74.8000 192° South  Level FlightAware Approximate
12:58PM 39.9343 -74.8072 192° South  Level Estimated
12:59PM 39.9333 -74.8000 192° South  Level FlightAware Approximate
01:00PM 39.9343 -74.8072 192° South  Level Estimated
01:01PM 39.9333 -74.8000 192° South  Level FlightAware Approximate
01:02PM 39.9343 -74.8072 192° South  Level Estimated
01:03PM 39.9333 -74.8000 192° South  Level FlightAware Approximate
01:04PM 39.9343 -74.8072 192° South  Level Estimated
01:05PM 39.9333 -74.8000 192° South  Level FlightAware Approximate
01:06PM 39.9343 -74.8072 192° South  Level Estimated
01:07PM 39.9333 -74.8000 192° South  Level FlightAware Approximate
01:08PM 39.9343 -74.8072 192° South  Level Estimated
01:09PM 39.9333 -74.8000 192° South  Level FlightAware Approximate
01:10PM 39.9343 -74.8072 192° South  Level Estimated
01:11PM 39.9333 -74.8000 192° South  Level FlightAware Approximate
01:12PM 39.9343 -74.8072 192° South  Level Estimated